Time;durP1;ratioP1;P1;durP2;ratioP2;P2;SDS_P1;SDS_P2;PMS_P1;PMS_P2;Temp;Humidity;BMP_temperature;BMP_pressure;BME280_temperature;BME280_humidity;BME280_pressure;Samples;Min_cycle;Max_cycle;Signal;HPM_P1;HPM_P2
2021/11/15 00:01:43;;;;;;;;;12.75;10.00;;;;;21.27;43.81;101800.88;5058037;28;45415;-43
2021/11/15 00:04:17;;;;;;;;;9.00;9.00;;;;;21.27;43.95;101809.63;5057626;28;45239;-42
2021/11/15 00:06:43;;;;;;;;;10.00;8.25;;;;;21.22;44.17;101797.56;5057337;28;45391;-42
2021/11/15 00:09:09;;;;;;;;;10.00;9.00;;;;;21.25;44.27;101808.84;5057919;28;45828;-44
2021/11/15 00:11:35;;;;;;;;;11.00;9.75;;;;;21.23;43.84;101802.78;5058147;28;45233;-41
2021/11/15 00:14:01;;;;;;;;;9.00;9.00;;;;;21.23;44.12;101802.78;5057512;28;45389;-43
2021/11/15 00:16:27;;;;;;;;;9.00;9.00;;;;;21.23;43.71;101808.06;5057443;28;45387;-44
2021/11/15 00:18:52;;;;;;;;;8.50;8.50;;;;;21.22;44.21;101802.84;5057629;28;45333;-51
2021/11/15 00:21:18;;;;;;;;;10.50;9.00;;;;;21.17;43.68;101803.06;5057676;28;45238;-46
2021/11/15 00:23:44;;;;;;;;;9.00;9.00;;;;;21.19;44.26;101806.47;5057287;28;45804;-48
2021/11/15 00:26:09;;;;;;;;;6.25;6.25;;;;;21.17;44.14;101806.53;5057510;28;45465;-42
2021/11/15 00:28:35;;;;;;;;;10.25;10.25;;;;;21.16;43.88;101807.47;5057817;28;45517;-48
2021/11/15 00:31:00;;;;;;;;;9.50;8.00;;;;;21.15;43.74;101805.75;5056306;28;45695;-49
2021/11/15 00:33:25;;;;;;;;;10.00;8.00;;;;;21.11;43.85;101798.06;5055838;28;47068;-49
2021/11/15 00:35:51;;;;;;;;;9.50;9.50;;;;;21.14;43.80;101813.72;5039070;28;45824;-50
2021/11/15 00:38:16;;;;;;;;;12.50;11.00;;;;;21.12;44.03;101816.44;5057292;28;45388;-49
2021/11/15 00:40:42;;;;;;;;;7.25;7.00;;;;;21.06;43.82;101808.75;5057450;28;45348;-42
2021/11/15 00:43:07;;;;;;;;;8.00;7.25;;;;;21.10;44.05;101820.06;5039396;28;47346;-49
2021/11/15 00:45:34;;;;;;;;;7.50;7.50;;;;;21.08;44.12;101812.19;5057132;28;45383;-43
2021/11/15 00:48:00;;;;;;;;;8.00;8.00;;;;;21.08;44.02;101811.34;5057092;28;45327;-45
2021/11/15 00:50:26;;;;;;;;;9.75;9.75;;;;;21.08;43.82;101820.09;5057297;28;45332;-46
2021/11/15 00:52:51;;;;;;;;;11.75;9.75;;;;;21.07;43.82;101814.91;5056823;28;46695;-45
2021/11/15 00:55:18;;;;;;;;;9.00;9.00;;;;;21.07;43.77;101814.91;5056924;28;45424;-44
2021/11/15 00:57:43;;;;;;;;;9.25;9.25;;;;;21.05;43.82;101815.00;5056859;28;45479;-41
2021/11/15 01:00:13;;;;;;;;;9.50;8.00;;;;;21.04;44.08;101818.53;5039388;28;45426;-45
2021/11/15 01:02:39;;;;;;;;;6.75;6.75;;;;;21.05;43.82;101814.13;5039072;28;47059;-41
2021/11/15 01:05:05;;;;;;;;;9.25;8.25;;;;;21.02;44.02;101817.75;5056633;28;45551;-41
2021/11/15 01:07:30;;;;;;;;;9.50;9.50;;;;;21.03;43.57;101815.94;5056865;28;45398;-45
2021/11/15 01:09:55;;;;;;;;;6.50;5.25;;;;;21.01;43.78;101824.78;5057049;28;45492;-45
2021/11/15 01:12:21;;;;;;;;;12.00;11.00;;;;;20.99;44.18;101824.00;5056506;28;45465;-44
2021/11/15 01:14:47;;;;;;;;;11.75;9.50;;;;;20.99;43.65;101829.28;5056664;28;45309;-43
2021/11/15 01:17:12;;;;;;;;;10.00;7.75;;;;;20.98;44.09;101824.06;5056658;28;45395;-42
2021/11/15 01:19:37;;;;;;;;;7.25;7.25;;;;;20.98;43.85;101824.94;5039119;28;45545;-42
2021/11/15 01:22:04;;;;;;;;;8.75;8.75;;;;;20.98;43.48;101822.28;5056298;28;46438;-42
2021/11/15 01:24:29;;;;;;;;;10.00;8.00;;;;;20.98;44.10;101832.84;5056503;28;45435;-43
2021/11/15 01:26:55;;;;;;;;;9.75;8.00;;;;;20.96;43.86;101824.13;5056558;28;45353;-45
2021/11/15 01:29:20;;;;;;;;;10.00;8.00;;;;;20.93;44.15;101816.34;5056850;28;45554;-43
2021/11/15 01:31:46;;;;;;;;;9.00;8.00;;;;;20.91;43.69;101820.81;5056202;28;46038;-44
2021/11/15 01:34:11;;;;;;;;;8.75;8.75;;;;;20.94;44.09;101818.06;5056647;28;45329;-43
2021/11/15 01:36:36;;;;;;;;;11.50;9.00;;;;;20.93;43.65;101818.97;5056613;28;45545;-45
2021/11/15 01:39:04;;;;;;;;;9.25;8.50;;;;;20.90;44.15;101821.72;5056463;28;45300;-43
2021/11/15 01:41:30;;;;;;;;;7.00;7.00;;;;;20.88;43.70;101810.41;5056292;28;46334;-47
2021/11/15 01:43:56;;;;;;;;;9.25;8.50;;;;;20.88;43.52;101818.31;5056275;28;45817;-46
2021/11/15 01:46:21;;;;;;;;;9.50;8.50;;;;;20.89;43.94;101817.38;5056225;28;45332;-44
2021/11/15 01:48:47;;;;;;;;;8.25;8.25;;;;;20.88;43.64;101823.59;5056495;28;45562;-44
2021/11/15 01:51:12;;;;;;;;;9.00;8.00;;;;;20.88;43.91;101828.00;5056196;28;45319;-43
2021/11/15 01:53:38;;;;;;;;;11.75;9.25;;;;;20.88;43.99;101820.09;5056097;28;45478;-47
2021/11/15 01:56:03;;;;;;;;;10.50;8.25;;;;;20.87;43.94;101821.00;5056266;28;45431;-44
2021/11/15 01:58:29;;;;;;;;;9.25;9.25;;;;;20.87;43.44;101816.59;5054972;28;45474;-44
2021/11/15 02:00:58;;;;;;;;;10.25;8.50;;;;;20.82;43.49;101815.91;5055966;28;45407;-49
2021/11/15 02:03:26;;;;;;;;;9.00;8.00;;;;;20.85;44.03;101821.06;5055981;28;46403;-48
2021/11/15 02:05:51;;;;;;;;;10.00;9.00;;;;;20.85;43.89;101816.66;5041217;28;45645;-44
2021/11/15 02:08:18;;;;;;;;;8.75;7.25;;;;;20.84;43.55;101822.84;5059765;28;45395;-48
2021/11/15 02:10:44;;;;;;;;;9.00;9.00;;;;;20.84;43.86;101824.63;5059540;28;45444;-48
2021/11/15 02:13:13;;;;;;;;;11.00;9.50;;;;;20.80;43.78;101807.22;5059599;28;45775;-49
2021/11/15 02:15:38;;;;;;;;;9.50;8.00;;;;;20.84;43.93;101830.75;5059599;28;45335;-47
2021/11/15 02:18:04;;;;;;;;;9.75;8.25;;;;;20.80;43.75;101817.75;5059613;28;45954;-46
2021/11/15 02:20:58;;;;;;;;;7.25;7.25;;;;;20.83;43.94;101829.06;5059265;28;46313;-46
2021/11/15 02:23:27;;;;;;;;;9.00;9.00;;;;;20.81;43.71;101825.63;5059369;28;45815;-43
2021/11/15 02:25:55;;;;;;;;;8.75;7.50;;;;;20.83;43.53;101830.81;5059421;28;45315;-42
2021/11/15 02:28:33;;;;;;;;;7.00;6.25;;;;;20.82;43.27;101837.88;5059314;28;45328;-46
2021/11/15 02:31:00;;;;;;;;;8.25;8.25;;;;;20.81;43.36;101824.75;5058987;28;45414;-44
2021/11/15 02:33:28;;;;;;;;;7.25;6.75;;;;;20.80;43.75;101809.84;5059053;28;45239;-42
2021/11/15 02:35:54;;;;;;;;;7.00;7.00;;;;;20.78;43.77;101817.00;5059057;28;45399;-43
2021/11/15 02:38:20;;;;;;;;;10.00;10.00;;;;;20.79;43.26;101808.13;5059181;28;45348;-45
2021/11/15 02:40:45;;;;;;;;;10.00;9.00;;;;;20.77;43.73;101813.47;5058064;28;48159;-43
2021/11/15 02:43:11;;;;;;;;;8.25;7.50;;;;;20.78;43.72;101817.00;5059201;28;45430;-47
2021/11/15 02:45:36;;;;;;;;;9.25;9.25;;;;;20.78;43.79;101819.63;5058928;28;45406;-46
2021/11/15 02:48:02;;;;;;;;;9.75;8.25;;;;;20.74;43.38;101813.59;5059312;28;45419;-43
2021/11/15 02:50:30;;;;;;;;;9.50;8.00;;;;;20.77;43.34;101824.03;5058698;28;46723;-43
2021/11/15 02:52:59;;;;;;;;;7.75;7.50;;;;;20.77;43.23;101828.44;5058792;28;45807;-47
2021/11/15 02:55:28;;;;;;;;;10.25;8.75;;;;;20.76;43.30;101829.38;5058810;28;45410;-47
2021/11/15 02:57:54;;;;;;;;;9.00;9.00;;;;;20.74;43.46;101824.13;5058882;28;45487;-49
2021/11/15 03:00:33;;;;;;;;;9.75;9.75;;;;;20.75;43.15;101820.59;5058624;28;45260;-42
2021/11/15 03:02:59;;;;;;;;;8.50;8.00;;;;;20.75;43.69;101827.66;5058553;28;45348;-48
2021/11/15 03:05:28;;;;;;;;;8.50;8.50;;;;;20.73;43.52;101821.53;5058605;28;45443;-41
2021/11/15 03:07:54;;;;;;;;;10.50;9.50;;;;;20.74;43.18;101828.53;5058749;28;45324;-44
2021/11/15 03:10:21;;;;;;;;;9.00;7.50;;;;;20.73;43.01;101825.03;5057096;28;48731;-43
2021/11/15 03:12:47;;;;;;;;;8.75;8.75;;;;;20.72;43.50;101823.34;5058836;28;45501;-45
2021/11/15 03:15:27;;;;;;;;;7.00;7.00;;;;;20.72;43.22;101831.25;5040187;28;45339;-46
2021/11/15 03:17:54;;;;;;;;;9.25;8.25;;;;;20.69;43.40;101819.03;5058464;28;45258;-46
2021/11/15 03:20:20;;;;;;;;;8.50;7.75;;;;;20.69;43.35;101821.66;5058180;28;46633;-46
2021/11/15 03:22:45;;;;;;;;;8.75;8.75;;;;;20.69;43.06;101821.66;5058446;28;45285;-47
2021/11/15 03:25:10;;;;;;;;;8.25;7.50;;;;;20.70;43.40;101822.53;5058554;28;45313;-48
2021/11/15 03:27:36;;;;;;;;;8.75;8.75;;;;;20.67;43.01;101820.00;5058638;28;45219;-48
2021/11/15 03:30:05;;;;;;;;;6.50;5.25;;;;;20.68;43.02;101830.47;5058096;28;46291;-47
2021/11/15 03:32:30;;;;;;;;;10.25;10.00;;;;;20.68;43.56;101830.47;5040104;28;45876;-45
2021/11/15 03:34:58;;;;;;;;;8.25;8.25;;;;;20.64;43.36;101823.63;5058324;28;45376;-45
2021/11/15 03:37:23;;;;;;;;;13.25;11.25;;;;;20.69;43.48;101836.63;5058418;28;45443;-43
2021/11/15 03:39:49;;;;;;;;;11.00;10.00;;;;;20.67;43.49;101834.03;5057894;28;45299;-43
2021/11/15 03:42:14;;;;;;;;;7.50;7.50;;;;;20.67;43.01;101833.19;5058345;28;45247;-42
2021/11/15 03:44:39;;;;;;;;;13.25;10.00;;;;;20.66;43.03;101829.72;5058134;28;45336;-45
2021/11/15 03:47:05;;;;;;;;;11.25;9.75;;;;;20.62;42.90;101820.19;5058225;28;45230;-43
2021/11/15 03:49:30;;;;;;;;;7.25;7.25;;;;;20.65;43.00;101817.44;5057710;28;45483;-41
2021/11/15 03:51:56;;;;;;;;;9.25;9.25;;;;;20.65;43.29;101822.72;5057701;28;45187;-43
2021/11/15 03:54:21;;;;;;;;;9.50;9.50;;;;;20.65;43.19;101820.09;5057832;28;45319;-45
2021/11/15 03:56:47;;;;;;;;;9.00;8.00;;;;;20.64;43.29;101823.63;5058331;28;45495;-48
2021/11/15 03:59:12;;;;;;;;;7.00;7.00;;;;;20.65;43.02;101825.34;5057581;28;46587;-52
2021/11/15 04:01:39;;;;;;;;;9.50;9.00;;;;;20.60;43.14;101824.66;5057564;28;45325;-47
2021/11/15 04:04:07;;;;;;;;;7.25;7.25;;;;;20.63;43.27;101827.19;5057735;28;45358;-52
2021/11/15 04:06:39;;;;;;;;;8.75;8.50;;;;;20.62;42.67;101833.38;5057575;28;45494;-47
2021/11/15 04:09:09;;;;;;;;;7.00;7.00;;;;;20.62;43.30;101833.38;5056095;28;47657;-46
2021/11/15 04:11:36;;;;;;;;;8.75;8.75;;;;;20.62;42.78;101829.84;5057390;28;45748;-45
2021/11/15 04:14:11;;;;;;;;;9.75;8.50;;;;;20.61;43.05;101823.75;5057597;28;45305;-47
2021/11/15 04:16:37;;;;;;;;;9.75;8.25;;;;;20.61;42.44;101817.63;5057616;28;45328;-48
2021/11/15 04:19:15;;;;;;;;;8.50;6.00;;;;;20.58;42.95;101823.88;5057295;28;45383;-46
2021/11/15 04:21:41;;;;;;;;;8.75;8.50;;;;;20.60;42.81;101832.56;5057283;28;45850;-44
2021/11/15 04:24:07;;;;;;;;;9.50;9.50;;;;;20.59;42.68;101820.31;5057408;28;45245;-45
2021/11/15 04:26:33;;;;;;;;;10.50;10.00;;;;;20.59;43.00;101830.84;5057174;28;45360;-43
2021/11/15 04:28:59;;;;;;;;;9.00;9.00;;;;;20.60;42.71;101827.31;5057175;28;45460;-43
2021/11/15 04:31:25;;;;;;;;;9.00;8.50;;;;;20.59;42.89;101824.75;5057222;28;45257;-45
2021/11/15 04:33:52;;;;;;;;;7.00;7.00;;;;;20.58;42.94;101823.88;5057577;28;45423;-46
2021/11/15 04:36:18;;;;;;;;;10.00;9.50;;;;;20.57;42.71;101818.66;5057943;28;45337;-48
2021/11/15 04:38:43;;;;;;;;;7.75;7.75;;;;;20.58;42.71;101817.75;5056962;28;45490;-46
2021/11/15 04:41:09;;;;;;;;;10.00;10.00;;;;;20.57;42.51;101816.88;5057088;28;45489;-48
2021/11/15 04:43:34;;;;;;;;;9.50;9.50;;;;;20.55;42.98;101818.75;5057195;28;45430;-46
2021/11/15 04:46:00;;;;;;;;;9.75;9.25;;;;;20.57;42.76;101816.03;5057310;28;45657;-51
2021/11/15 04:48:25;;;;;;;;;9.50;9.00;;;;;20.55;42.92;101808.22;5056726;28;46127;-47
2021/11/15 04:50:52;;;;;;;;;9.00;9.00;;;;;20.55;42.55;101809.06;5057289;28;45272;-48
2021/11/15 04:53:17;;;;;;;;;11.00;9.75;;;;;20.55;42.83;101802.94;5039034;28;45363;-46
2021/11/15 04:55:43;;;;;;;;;10.00;9.75;;;;;20.52;42.58;101797.78;5057221;28;45657;-46
2021/11/15 04:58:08;;;;;;;;;9.25;9.25;;;;;20.49;43.11;101793.50;5056745;28;46257;-49
2021/11/15 05:00:35;;;;;;;;;9.50;9.50;;;;;20.54;42.96;101803.84;5056664;28;45336;-49
2021/11/15 05:03:01;;;;;;;;;13.50;9.00;;;;;20.52;42.66;101803.91;5056837;28;45395;-47
2021/11/15 05:05:26;;;;;;;;;10.75;9.25;;;;;20.52;42.79;101809.16;5056730;28;45384;-47
2021/11/15 05:07:56;;;;;;;;;8.25;8.25;;;;;20.53;42.97;101810.88;5056897;28;46162;-50
2021/11/15 05:10:25;;;;;;;;;9.75;9.75;;;;;20.54;42.96;101807.34;5056889;28;45279;-50
2021/11/15 05:12:50;;;;;;;;;10.50;10.00;;;;;20.55;42.51;101810.84;5057107;28;45318;-47
2021/11/15 05:15:20;;;;;;;;;1.25;1.25;;;;;20.54;42.57;101804.69;5056968;28;45347;-49
2021/11/15 05:17:50;;;;;;;;;8.25;8.25;;;;;20.58;42.69;101801.94;5056477;28;45446;-49
2021/11/15 05:20:17;;;;;;;;;10.00;9.25;;;;;20.67;43.08;101812.09;5056575;28;45371;-45
2021/11/15 05:22:43;;;;;;;;;8.00;6.75;;;;;20.70;42.94;101804.94;5056679;28;45395;-48
2021/11/15 05:25:09;;;;;;;;;9.00;9.00;;;;;20.75;42.55;101815.31;5056823;28;45531;-48
2021/11/15 05:27:36;;;;;;;;;12.00;11.25;;;;;20.81;42.83;101809.81;5056296;28;45728;-44
2021/11/15 05:30:04;;;;;;;;;12.25;10.00;;;;;20.86;42.91;101814.88;5056203;28;45944;-49
2021/11/15 05:32:30;;;;;;;;;10.25;9.25;;;;;20.91;42.64;101807.63;5056609;28;45361;-46
2021/11/15 05:34:57;;;;;;;;;12.25;10.00;;;;;20.95;42.46;101809.22;5056563;28;45566;-44
2021/11/15 05:37:22;;;;;;;;;14.00;11.75;;;;;20.99;42.37;101808.19;5056575;28;46623;-45
2021/11/15 05:39:47;;;;;;;;;9.25;9.00;;;;;21.00;42.78;101814.31;5055322;28;45488;-47
2021/11/15 05:42:13;;;;;;;;;12.25;12.00;;;;;21.06;42.36;101816.66;5056312;28;45368;-46
2021/11/15 05:44:38;;;;;;;;;11.75;11.75;;;;;21.10;42.53;101817.44;5038349;28;45282;-43
2021/11/15 05:47:04;;;;;;;;;14.75;14.75;;;;;21.13;42.13;101820.78;5056142;28;45345;-48
2021/11/15 05:49:30;;;;;;;;;11.75;9.50;;;;;21.15;41.86;101818.06;5054776;28;45513;-45
2021/11/15 05:51:55;;;;;;;;;13.75;13.00;;;;;21.13;41.79;101815.50;5056211;28;45415;-43
2021/11/15 05:54:21;;;;;;;;;9.00;9.00;;;;;21.19;41.82;101827.56;5056621;28;45547;-44
2021/11/15 05:56:46;;;;;;;;;12.00;12.00;;;;;21.20;42.06;101828.41;5055948;28;47303;-45
2021/11/15 05:59:13;;;;;;;;;11.50;11.50;;;;;21.21;42.18;101836.28;5055712;28;45249;-48
2021/11/15 06:01:39;;;;;;;;;11.75;10.50;;;;;21.20;41.67;101834.56;5056155;28;45386;-47
2021/11/15 06:04:06;;;;;;;;;13.00;13.00;;;;;21.19;41.61;101827.56;5056151;28;45248;-47
2021/11/15 06:06:31;;;;;;;;;8.50;7.00;;;;;21.22;41.98;101831.84;5055766;28;45413;-45
2021/11/15 06:08:56;;;;;;;;;13.25;12.00;;;;;21.23;41.61;101836.22;5038034;28;45467;-45
2021/11/15 06:11:22;;;;;;;;;14.25;13.00;;;;;21.23;41.76;101837.06;5055072;28;45633;-43
2021/11/15 06:13:47;;;;;;;;;11.00;10.00;;;;;21.23;41.35;101833.56;5054855;28;45521;-46
2021/11/15 06:16:13;;;;;;;;;12.00;12.00;;;;;21.26;41.44;101831.66;5055699;28;46166;-47
2021/11/15 06:18:38;;;;;;;;;9.25;8.25;;;;;21.27;41.65;101838.66;5055731;28;45415;-50
2021/11/15 06:21:04;;;;;;;;;12.00;11.00;;;;;21.27;41.90;101838.66;5055902;28;45395;-44
2021/11/15 06:23:30;;;;;;;;;10.00;10.00;;;;;21.28;41.48;101844.75;5056066;28;45518;-51
2021/11/15 06:25:55;;;;;;;;;11.50;11.00;;;;;21.29;41.28;101851.75;5055893;28;47360;-50
2021/11/15 06:28:21;;;;;;;;;13.00;11.00;;;;;21.30;41.57;101851.72;5037542;28;45541;-49
2021/11/15 06:30:46;;;;;;;;;8.50;8.50;;;;;21.28;41.21;101845.63;5055670;28;45408;-48
2021/11/15 06:33:12;;;;;;;;;12.50;12.00;;;;;21.31;41.42;101849.91;5055950;28;45540;-47
2021/11/15 06:35:37;;;;;;;;;11.00;11.00;;;;;21.27;41.50;101843.06;5055455;28;45475;-49
2021/11/15 06:38:03;;;;;;;;;11.25;9.50;;;;;21.31;41.49;101848.16;5055516;28;45339;-48
2021/11/15 06:40:28;;;;;;;;;10.00;10.00;;;;;21.30;41.11;101845.56;5037762;28;45177;-47
2021/11/15 06:42:53;;;;;;;;;13.25;10.00;;;;;21.30;41.08;101846.44;5056187;28;45609;-48
2021/11/15 06:45:19;;;;;;;;;12.75;10.75;;;;;21.27;41.59;101843.91;5055444;28;46875;-46
2021/11/15 06:47:47;;;;;;;;;12.75;11.50;;;;;21.30;41.50;101854.34;5037424;28;45836;-50
2021/11/15 06:50:16;;;;;;;;;10.00;9.00;;;;;21.30;41.51;101859.63;5056548;28;46030;-45
2021/11/15 06:52:41;;;;;;;;;9.25;9.25;;;;;21.28;41.09;101858.81;5059178;28;45513;-49
2021/11/15 06:55:08;;;;;;;;;13.00;10.00;;;;;21.28;41.41;101856.19;5058740;28;45347;-47
2021/11/15 06:57:34;;;;;;;;;8.00;8.00;;;;;21.28;41.18;101866.72;5058550;28;45262;-51
2021/11/15 07:00:00;;;;;;;;;8.00;7.00;;;;;21.27;41.38;101858.91;5058918;28;45567;-46
2021/11/15 07:02:25;;;;;;;;;8.50;8.00;;;;;21.26;40.96;101865.09;5059257;28;45590;-46
2021/11/15 07:04:51;;;;;;;;;9.00;8.50;;;;;21.26;41.39;101878.28;5040335;28;48031;-44
2021/11/15 07:07:17;;;;;;;;;12.00;9.00;;;;;21.24;41.52;101872.19;5058591;28;45310;-45
2021/11/15 07:09:46;;;;;;;;;12.25;11.00;;;;;21.23;41.12;101879.22;5040679;28;45406;-45
2021/11/15 07:12:12;;;;;;;;;16.75;16.75;;;;;21.21;41.17;101874.97;5058875;28;45328;-43
2021/11/15 07:14:38;;;;;;;;;14.50;13.25;;;;;21.14;41.18;101879.63;5057187;28;47719;-43
2021/11/15 07:17:04;;;;;;;;;15.00;13.25;;;;;21.16;41.10;101885.69;5058440;28;45183;-43
2021/11/15 07:19:29;;;;;;;;;20.25;18.25;;;;;21.12;40.57;101892.88;5058394;28;45163;-44
2021/11/15 07:21:54;;;;;;;;;15.50;13.50;;;;;21.11;41.06;101890.31;5059137;28;45216;-43
2021/11/15 07:24:20;;;;;;;;;19.75;16.00;;;;;21.05;41.13;101891.44;5058172;28;46257;-46
2021/11/15 07:26:45;;;;;;;;;10.50;8.75;;;;;21.07;40.63;101886.06;5058339;28;45252;-42
2021/11/15 07:29:10;;;;;;;;;15.75;15.50;;;;;20.99;40.91;101876.72;5058319;28;45309;-46
2021/11/15 07:31:38;;;;;;;;;14.25;12.75;;;;;21.03;40.73;101889.75;5058497;28;45621;-42
2021/11/15 07:34:04;;;;;;;;;15.50;13.75;;;;;21.01;40.91;101887.19;5058069;28;45367;-43
2021/11/15 07:36:31;;;;;;;;;12.75;12.00;;;;;20.99;41.33;101889.91;5058395;28;45818;-43
2021/11/15 07:38:57;;;;;;;;;15.25;12.75;;;;;20.99;40.78;101895.16;5058391;28;45278;-42
2021/11/15 07:41:22;;;;;;;;;18.50;15.00;;;;;20.99;41.25;101896.94;5058252;28;45257;-42
2021/11/15 07:43:47;;;;;;;;;13.75;13.50;;;;;20.95;41.09;101887.41;5039788;28;45315;-41
2021/11/15 07:46:13;;;;;;;;;15.00;14.50;;;;;20.99;40.85;101903.06;5057721;28;45320;-43
2021/11/15 07:48:38;;;;;;;;;14.50;13.25;;;;;21.01;41.00;101911.75;5057873;28;45368;-41
2021/11/15 07:51:04;;;;;;;;;14.50;14.50;;;;;21.00;41.20;101909.19;5058082;28;45305;-43
2021/11/15 07:53:30;;;;;;;;;17.25;14.75;;;;;21.00;41.27;101912.66;5057882;28;46044;-43
2021/11/15 07:55:56;;;;;;;;;15.50;14.75;;;;;20.99;41.04;101915.38;5057983;28;45858;-42
2021/11/15 07:58:21;;;;;;;;;17.00;14.75;;;;;20.98;40.67;101921.56;5057749;28;45268;-46
2021/11/15 08:00:48;;;;;;;;;12.50;12.50;;;;;20.96;40.47;101918.13;5057825;28;45524;-45
2021/11/15 08:03:14;;;;;;;;;16.00;13.50;;;;;20.94;40.54;101925.25;5056576;28;46102;-43
2021/11/15 08:05:39;;;;;;;;;15.25;13.25;;;;;20.89;40.75;101917.50;5057228;28;45444;-44
2021/11/15 08:08:05;;;;;;;;;12.25;12.25;;;;;20.91;40.52;101925.38;5056410;28;45674;-43
2021/11/15 08:10:30;;;;;;;;;15.25;12.00;;;;;20.88;40.37;101929.00;5057908;28;45436;-45
2021/11/15 08:12:57;;;;;;;;;12.00;12.00;;;;;20.87;40.75;101924.66;5057244;28;45422;-42
2021/11/15 08:15:26;;;;;;;;;16.00;16.00;;;;;20.84;40.71;101924.75;5057266;28;45185;-45
2021/11/15 08:17:55;;;;;;;;;12.00;12.00;;;;;20.82;40.55;101927.47;5057531;28;45267;-45
2021/11/15 08:20:29;;;;;;;;;12.50;12.00;;;;;20.81;40.31;101924.88;5057571;28;45321;-41
2021/11/15 08:22:59;;;;;;;;;17.00;12.75;;;;;20.77;40.51;101915.38;5057099;28;45339;-49
2021/11/15 08:26:01;;;;;;;;;13.75;12.50;;;;;20.79;40.25;101922.31;5057177;28;45333;-43
2021/11/15 08:28:28;;;;;;;;;12.75;12.00;;;;;20.77;40.02;101928.56;5057744;28;45489;-47
2021/11/15 08:30:55;;;;;;;;;15.75;11.25;;;;;20.76;40.32;101926.84;5057514;28;45575;-46
2021/11/15 08:33:21;;;;;;;;;14.00;11.75;;;;;20.75;39.81;101922.50;5055642;28;45955;-43
2021/11/15 08:35:48;;;;;;;;;15.50;13.00;;;;;20.70;39.80;101917.38;5056913;28;45395;-43
2021/11/15 08:38:17;;;;;;;;;15.25;14.25;;;;;20.72;39.71;101923.44;5057081;28;45418;-47
2021/11/15 08:40:44;;;;;;;;;11.00;11.00;;;;;20.73;39.81;101926.91;5057353;28;45576;-44
2021/11/15 08:43:09;;;;;;;;;12.25;11.25;;;;;20.67;40.27;101912.22;5056794;28;46805;-47
2021/11/15 08:45:37;;;;;;;;;16.75;13.50;;;;;20.69;40.20;101921.75;5056877;28;45352;-47
2021/11/15 08:48:03;;;;;;;;;15.50;14.00;;;;;20.64;40.13;101915.84;5057308;28;45284;-42
2021/11/15 08:50:29;;;;;;;;;16.50;16.00;;;;;20.65;39.55;101912.28;5039367;28;45569;-46
2021/11/15 08:52:56;;;;;;;;;16.00;13.25;;;;;20.66;40.04;101924.53;5056785;28;45483;-48
2021/11/15 08:55:22;;;;;;;;;14.50;14.25;;;;;20.65;39.66;101920.19;5056697;28;45991;-45
2021/11/15 08:57:47;;;;;;;;;16.00;13.75;;;;;20.64;39.88;101926.38;5056807;28;45314;-46
2021/11/15 09:00:13;;;;;;;;;17.50;13.50;;;;;20.61;39.64;101923.84;5056676;28;45668;-43
2021/11/15 09:02:38;;;;;;;;;16.50;12.50;;;;;20.62;39.65;101925.56;5038487;28;47548;-45
2021/11/15 09:05:04;;;;;;;;;17.50;15.25;;;;;20.59;40.11;101923.03;5056571;28;45423;-45
2021/11/15 09:07:34;;;;;;;;;17.00;16.75;;;;;20.60;39.53;101926.53;5056859;28;45369;-42
2021/11/15 09:09:59;;;;;;;;;12.50;12.50;;;;;20.59;39.98;101909.88;5057142;28;45396;-50
2021/11/15 09:12:24;;;;;;;;;17.00;13.25;;;;;20.59;39.69;101914.28;5056566;28;46345;-46
2021/11/15 09:14:51;;;;;;;;;12.50;10.25;;;;;20.58;39.40;101920.47;5055104;28;45362;-46
2021/11/15 09:17:17;;;;;;;;;13.75;13.75;;;;;20.57;39.70;101919.59;5056687;28;45372;-45
2021/11/15 09:19:42;;;;;;;;;14.75;14.50;;;;;20.54;39.55;101914.47;5056484;28;45210;-44
2021/11/15 09:22:08;;;;;;;;;15.25;15.25;;;;;20.52;39.83;101903.13;5056186;28;45436;-45
2021/11/15 09:24:33;;;;;;;;;15.50;13.25;;;;;20.54;39.78;101917.09;5056656;28;45316;-49
2021/11/15 09:27:01;;;;;;;;;14.75;14.00;;;;;20.52;39.44;101914.50;5056497;28;45237;-44
2021/11/15 09:29:26;;;;;;;;;11.00;9.00;;;;;20.52;39.31;101918.94;5056574;28;45367;-47
2021/11/15 09:31:52;;;;;;;;;15.25;14.00;;;;;20.52;39.67;101919.78;5056218;28;45526;-47
2021/11/15 09:34:18;;;;;;;;;15.50;15.50;;;;;20.50;39.49;101915.50;5055936;28;45574;-45
2021/11/15 09:36:43;;;;;;;;;15.75;14.50;;;;;20.46;38.98;101916.50;5056294;28;45687;-48
2021/11/15 09:39:09;;;;;;;;;14.50;12.50;;;;;20.46;39.19;101913.88;5054908;28;45410;-42
2021/11/15 09:41:36;;;;;;;;;14.25;13.75;;;;;20.48;39.61;101918.19;5054943;28;47362;-46
2021/11/15 09:44:03;;;;;;;;;11.50;10.00;;;;;20.44;39.65;101916.59;5056314;28;45862;-49
2021/11/15 09:46:29;;;;;;;;;17.50;15.00;;;;;20.43;39.67;101906.97;5056099;28;45174;-44
2021/11/15 09:49:04;;;;;;;;;18.25;15.00;;;;;20.46;39.73;101920.03;5056274;28;45252;-43
2021/11/15 09:51:31;;;;;;;;;16.75;13.75;;;;;20.46;39.28;101929.69;5055849;28;46114;-45
2021/11/15 09:53:59;;;;;;;;;15.25;15.25;;;;;20.41;39.37;101921.97;5056004;28;45888;-50
2021/11/15 09:56:26;;;;;;;;;14.50;14.25;;;;;20.43;39.74;101929.81;5037819;28;45421;-45
2021/11/15 09:58:52;;;;;;;;;17.25;17.25;;;;;20.44;39.48;101934.16;5056217;28;45344;-47
2021/11/15 10:01:18;;;;;;;;;15.75;14.75;;;;;20.43;39.36;101940.34;5055558;28;46284;-47
2021/11/15 10:03:43;;;;;;;;;15.25;14.50;;;;;20.38;39.51;101932.63;5056011;28;45265;-43
2021/11/15 10:06:09;;;;;;;;;14.00;13.50;;;;;20.41;39.66;101945.66;5055673;28;45403;-43
2021/11/15 10:08:53;;;;;;;;;20.25;17.50;;;;;20.40;39.69;101938.66;5056469;28;45233;-45
2021/11/15 10:11:21;;;;;;;;;16.25;15.00;;;;;20.39;39.32;101931.72;5055605;28;46118;-45
2021/11/15 10:13:48;;;;;;;;;16.25;15.00;;;;;20.36;39.66;101918.66;5055585;28;45986;-44
2021/11/15 10:16:17;;;;;;;;;16.25;15.25;;;;;20.38;39.21;101917.66;5055646;28;45339;-45
2021/11/15 10:18:54;;;;;;;;;16.25;12.75;;;;;20.34;39.30;101920.47;5055723;28;45570;-49
2021/11/15 10:21:30;;;;;;;;;17.25;16.50;;;;;20.36;39.18;101924.75;5055269;28;46111;-50
2021/11/15 10:24:05;;;;;;;;;10.00;10.00;;;;;20.35;39.21;101928.31;5055495;28;46086;-46
2021/11/15 10:26:41;;;;;;;;;13.75;13.75;;;;;20.35;39.11;101935.38;5058495;28;45318;-47
2021/11/15 10:29:16;;;;;;;;;14.75;12.75;;;;;20.34;39.64;101931.00;5059331;28;45288;-45
2021/11/15 10:31:49;;;;;;;;;15.00;15.00;;;;;20.33;39.28;101930.16;5058931;28;46522;-46
2021/11/15 10:34:37;;;;;;;;;15.25;11.75;;;;;20.29;39.51;101918.03;5058908;28;45810;-46
2021/11/15 10:37:03;;;;;;;;;17.75;13.25;;;;;20.32;39.32;101928.44;5058956;28;45322;-44
2021/11/15 10:39:34;;;;;;;;;16.00;13.50;;;;;20.32;39.15;101925.81;5059184;28;45320;-43
2021/11/15 10:42:05;;;;;;;;;13.75;12.25;;;;;20.31;39.31;101923.22;5058886;28;46774;-46
2021/11/15 10:44:31;;;;;;;;;18.50;15.25;;;;;20.30;39.39;101918.88;5058708;28;45258;-40
2021/11/15 10:46:59;;;;;;;;;19.50;14.50;;;;;20.30;39.57;101918.88;5059023;28;45355;-46
2021/11/15 10:49:24;;;;;;;;;13.25;12.75;;;;;20.24;39.18;101912.94;5059071;28;45233;-47
2021/11/15 10:52:08;;;;;;;;;18.50;13.25;;;;;20.28;39.27;101918.94;5058689;28;45289;-43
2021/11/15 10:54:40;;;;;;;;;10.75;10.00;;;;;20.27;39.07;101914.56;5058774;28;45840;-47
2021/11/15 10:57:43;;;;;;;;;14.00;12.00;;;;;20.28;39.41;101918.09;5059063;28;45390;-46
2021/11/15 11:00:13;;;;;;;;;14.00;12.00;;;;;20.26;39.59;101902.31;5007876;28;45409;-46
2021/11/15 11:02:44;;;;;;;;;13.50;12.75;;;;;20.21;39.63;101897.25;5057410;28;46596;-45
2021/11/15 11:05:22;;;;;;;;;16.00;16.00;;;;;20.21;39.41;101893.75;5058767;28;45435;-46
2021/11/15 11:08:02;;;;;;;;;14.50;13.75;;;;;20.20;39.72;101895.50;5040341;28;45360;-43
2021/11/15 11:10:29;;;;;;;;;15.50;13.75;;;;;20.24;39.45;101901.53;5058346;28;45465;-45
2021/11/15 11:12:59;;;;;;;;;18.00;14.50;;;;;20.22;39.66;101898.97;5058279;28;46979;-47
2021/11/15 11:15:37;;;;;;;;;12.25;11.50;;;;;20.18;39.52;101889.44;5058358;28;45256;-47
2021/11/15 11:18:34;;;;;;;;;12.75;12.50;;;;;20.22;39.20;101895.47;5058562;28;45432;-45